Time;durP1;ratioP1;P1;durP2;ratioP2;P2;SDS_P1;SDS_P2;PMS_P1;PMS_P2;Temp;Humidity;BMP_temperature;BMP_pressure;BME280_temperature;BME280_humidity;BME280_pressure;Samples;Min_cycle;Max_cycle;Signal;HPM_P1;HPM_P2
2024/01/31 00:02:00;;;;;;;7.20;2.13;;;;;;;;;;5065063;27;99450;-75
2024/01/31 00:04:27;;;;;;;4.90;1.80;;;;;;;;;;5065148;27;99992;-75
2024/01/31 00:06:53;;;;;;;3.75;1.85;;;;;;;;;;5065158;27;98275;-75
2024/01/31 00:09:20;;;;;;;3.92;1.80;;;;;;;;;;5064177;27;99532;-74
2024/01/31 00:11:46;;;;;;;5.45;1.98;;;;;;;;;;5064773;27;99235;-75
2024/01/31 00:14:15;;;;;;;7.22;2.35;;;;;;;;;;5068577;27;98605;-75
2024/01/31 00:16:43;;;;;;;2.67;1.70;;;;;;;;;;5071384;27;99435;-74
2024/01/31 00:19:09;;;;;;;4.10;1.85;;;;;;;;;;5068273;27;98451;-75
2024/01/31 00:21:36;;;;;;;5.90;2.03;;;;;;;;;;5069367;27;100273;-75
2024/01/31 00:24:02;;;;;;;2.92;1.88;;;;;;;;;;5067798;27;100018;-75
2024/01/31 00:26:28;;;;;;;10.82;2.55;;;;;;;;;;5069222;27;98346;-75
2024/01/31 00:28:55;;;;;;;6.22;2.38;;;;;;;;;;5068231;27;99494;-76
2024/01/31 00:31:21;;;;;;;5.38;2.45;;;;;;;;;;5068175;27;100177;-74
2024/01/31 00:33:48;;;;;;;5.93;1.88;;;;;;;;;;5067786;27;98199;-74
2024/01/31 00:36:15;;;;;;;7.65;1.90;;;;;;;;;;5067822;27;99143;-75
2024/01/31 00:38:41;;;;;;;5.53;3.08;;;;;;;;;;5071336;27;100169;-74
2024/01/31 00:41:08;;;;;;;9.73;2.08;;;;;;;;;;5068162;27;99409;-75
2024/01/31 00:43:35;;;;;;;12.63;2.58;;;;;;;;;;5067834;27;100321;-74
2024/01/31 00:46:04;;;;;;;3.90;2.20;;;;;;;;;;5064966;27;99523;-75
2024/01/31 00:48:32;;;;;;;4.28;1.52;;;;;;;;;;5068428;27;99454;-75
2024/01/31 00:50:59;;;;;;;8.40;2.53;;;;;;;;;;5067935;27;100449;-75
2024/01/31 00:53:25;;;;;;;5.28;1.63;;;;;;;;;;5068526;27;98649;-76
2024/01/31 00:55:52;;;;;;;4.97;2.13;;;;;;;;;;5068176;27;98610;-75
2024/01/31 00:58:18;;;;;;;8.32;2.00;;;;;;;;;;5066377;27;99925;-76
2024/01/31 01:00:45;;;;;;;8.05;2.05;;;;;;;;;;5070261;27;98890;-76
2024/01/31 01:03:11;;;;;;;7.65;2.40;;;;;;;;;;5068162;27;100126;-76
2024/01/31 01:05:38;;;;;;;4.93;2.08;;;;;;;;;;5068035;27;98564;-74
2024/01/31 01:08:04;;;;;;;3.17;1.98;;;;;;;;;;5068555;27;99365;-75
2024/01/31 01:10:31;;;;;;;3.53;1.98;;;;;;;;;;5068779;27;99939;-75
2024/01/31 01:12:59;;;;;;;5.00;1.92;;;;;;;;;;5066807;27;98211;-75
2024/01/31 01:15:25;;;;;;;8.60;2.22;;;;;;;;;;5067956;27;99443;-75
2024/01/31 01:17:52;;;;;;;6.63;1.90;;;;;;;;;;5065674;27;100848;-75
2024/01/31 01:20:18;;;;;;;5.50;1.65;;;;;;;;;;5067165;27;98265;-75
2024/01/31 01:22:46;;;;;;;6.63;2.00;;;;;;;;;;5061413;27;98462;-76
2024/01/31 01:25:13;;;;;;;2.03;1.73;;;;;;;;;;5064501;27;98874;-76
2024/01/31 01:27:39;;;;;;;9.13;2.47;;;;;;;;;;5067674;27;99392;-76
2024/01/31 01:30:06;;;;;;;4.88;2.25;;;;;;;;;;5068227;27;100557;-76
2024/01/31 01:32:32;;;;;;;4.95;2.00;;;;;;;;;;5065798;27;98283;-76
2024/01/31 01:34:59;;;;;;;9.43;2.25;;;;;;;;;;5066657;27;98696;-76
2024/01/31 01:37:26;;;;;;;11.77;1.90;;;;;;;;;;5068470;27;99858;-76
2024/01/31 01:39:52;;;;;;;3.38;1.88;;;;;;;;;;5068171;27;98312;-76
2024/01/31 01:42:19;;;;;;;5.53;2.55;;;;;;;;;;5067234;27;99492;-77
2024/01/31 01:44:46;;;;;;;2.97;1.98;;;;;;;;;;5071171;27;99286;-76
2024/01/31 01:47:13;;;;;;;5.35;2.08;;;;;;;;;;5065811;27;99385;-76
2024/01/31 01:49:40;;;;;;;2.65;1.85;;;;;;;;;;5066695;27;100220;-76
2024/01/31 01:52:08;;;;;;;5.60;2.13;;;;;;;;;;5067594;27;98200;-76
2024/01/31 01:54:34;;;;;;;7.05;2.28;;;;;;;;;;5067227;27;99780;-76
2024/01/31 01:57:01;;;;;;;4.25;2.13;;;;;;;;;;5066799;27;99045;-77
2024/01/31 01:59:27;;;;;;;2.92;1.95;;;;;;;;;;5067803;27;98529;-76
2024/01/31 02:01:54;;;;;;;8.35;2.28;;;;;;;;;;5066748;27;98577;-76
2024/01/31 02:04:21;;;;;;;4.00;2.42;;;;;;;;;;5069404;27;100527;-77
2024/01/31 02:06:48;;;;;;;5.35;2.33;;;;;;;;;;5067502;27;99728;-77
2024/01/31 02:09:15;;;;;;;5.38;2.60;;;;;;;;;;5066320;27;99994;-76
2024/01/31 02:11:41;;;;;;;5.25;3.03;;;;;;;;;;5066469;27;98286;-76
2024/01/31 02:14:08;;;;;;;2.88;2.53;;;;;;;;;;5066461;27;98857;-76
2024/01/31 02:16:34;;;;;;;4.22;2.10;;;;;;;;;;5065029;27;100040;-76
2024/01/31 02:19:01;;;;;;;3.75;2.20;;;;;;;;;;5066337;27;99549;-76
2024/01/31 02:21:28;;;;;;;4.80;2.42;;;;;;;;;;5065753;27;99279;-76
2024/01/31 02:23:54;;;;;;;5.78;3.13;;;;;;;;;;5066304;27;100040;-77
2024/01/31 02:26:21;;;;;;;7.07;1.95;;;;;;;;;;5069464;27;99214;-77
2024/01/31 02:28:47;;;;;;;7.32;3.45;;;;;;;;;;5067391;27;100104;-76
2024/01/31 02:31:14;;;;;;;7.95;2.35;;;;;;;;;;5066359;27;98308;-76
2024/01/31 02:33:40;;;;;;;3.83;2.83;;;;;;;;;;5066760;27;98898;-76
2024/01/31 02:36:07;;;;;;;2.70;2.15;;;;;;;;;;5064866;27;100283;-76
2024/01/31 02:38:33;;;;;;;8.60;2.42;;;;;;;;;;5065039;27;99280;-76
2024/01/31 02:40:59;;;;;;;2.10;1.98;;;;;;;;;;5066740;27;99401;-76
2024/01/31 02:43:26;;;;;;;4.43;2.40;;;;;;;;;;5067340;27;99876;-76
2024/01/31 02:45:52;;;;;;;4.15;2.05;;;;;;;;;;5066194;27;98335;-76
2024/01/31 02:48:19;;;;;;;6.65;2.65;;;;;;;;;;5069249;27;99857;-76
2024/01/31 02:50:45;;;;;;;5.85;2.47;;;;;;;;;;5066321;27;98239;-76
2024/01/31 02:53:12;;;;;;;5.18;2.92;;;;;;;;;;5065038;27;100191;-77
2024/01/31 02:55:38;;;;;;;4.25;2.28;;;;;;;;;;5065825;27;100010;-76
2024/01/31 02:58:05;;;;;;;5.65;2.30;;;;;;;;;;5065585;27;98382;-76
2024/01/31 03:00:31;;;;;;;5.47;2.22;;;;;;;;;;5065473;27;99346;-76
2024/01/31 03:02:58;;;;;;;4.57;2.53;;;;;;;;;;5065868;27;100426;-76
2024/01/31 03:05:24;;;;;;;3.15;1.95;;;;;;;;;;5066011;27;98628;-76
2024/01/31 03:07:51;;;;;;;3.67;2.10;;;;;;;;;;5066127;27;99987;-74
2024/01/31 03:10:17;;;;;;;4.03;2.20;;;;;;;;;;5068613;27;100204;-77
2024/01/31 03:12:44;;;;;;;3.83;2.20;;;;;;;;;;5065987;27;98671;-77
2024/01/31 03:15:10;;;;;;;2.13;1.95;;;;;;;;;;5065305;27;99050;-75
2024/01/31 03:17:37;;;;;;;4.15;2.13;;;;;;;;;;5068669;27;98233;-76
2024/01/31 03:20:05;;;;;;;2.50;2.25;;;;;;;;;;5065489;27;99508;-76
2024/01/31 03:22:34;;;;;;;7.47;2.03;;;;;;;;;;5066160;27;99374;-76
2024/01/31 03:25:01;;;;;;;9.75;2.97;;;;;;;;;;5057264;27;98831;-76
2024/01/31 03:27:27;;;;;;;5.38;2.22;;;;;;;;;;5045208;27;99432;-75
2024/01/31 03:29:54;;;;;;;2.30;2.20;;;;;;;;;;5045686;27;100524;-75
2024/01/31 03:32:20;;;;;;;2.00;1.90;;;;;;;;;;5049359;27;98226;-76
2024/01/31 03:34:47;;;;;;;2.30;1.80;;;;;;;;;;5044783;27;99228;-76
2024/01/31 03:37:13;;;;;;;6.03;2.22;;;;;;;;;;5046757;27;99325;-75
2024/01/31 03:39:40;;;;;;;2.28;2.08;;;;;;;;;;5048626;27;99040;-75
2024/01/31 03:42:06;;;;;;;6.18;2.05;;;;;;;;;;5064068;27;99103;-75
2024/01/31 03:44:33;;;;;;;2.05;1.95;;;;;;;;;;5065444;27;98331;-76
2024/01/31 03:46:59;;;;;;;2.10;1.60;;;;;;;;;;5064341;27;99385;-76
2024/01/31 03:49:26;;;;;;;5.88;2.00;;;;;;;;;;5064639;27;100198;-76
2024/01/31 03:51:52;;;;;;;2.33;2.05;;;;;;;;;;5069588;27;98677;-76
2024/01/31 03:54:19;;;;;;;3.67;2.08;;;;;;;;;;5063812;27;99241;-76
2024/01/31 03:56:45;;;;;;;4.47;2.42;;;;;;;;;;5065348;27;98451;-76
2024/01/31 03:59:12;;;;;;;4.30;1.90;;;;;;;;;;5065771;27;99549;-76
2024/01/31 04:01:38;;;;;;;2.33;1.83;;;;;;;;;;5064768;27;99698;-75
2024/01/31 04:04:05;;;;;;;3.78;1.83;;;;;;;;;;5065554;27;98391;-76
2024/01/31 04:06:32;;;;;;;3.47;1.92;;;;;;;;;;5065545;27;99373;-76
2024/01/31 04:08:58;;;;;;;10.38;1.80;;;;;;;;;;5063996;27;98940;-76
2024/01/31 04:11:24;;;;;;;2.53;1.70;;;;;;;;;;5065173;27;98152;-76
2024/01/31 04:13:51;;;;;;;7.60;1.60;;;;;;;;;;5063101;27;99515;-76
2024/01/31 04:16:17;;;;;;;6.68;1.77;;;;;;;;;;5064356;27;98327;-76
2024/01/31 04:18:44;;;;;;;3.05;1.90;;;;;;;;;;5065543;27;100048;-76
2024/01/31 04:21:17;;;;;;;2.22;1.60;;;;;;;;;;5064776;27;99564;-76
2024/01/31 04:23:43;;;;;;;4.72;1.75;;;;;;;;;;5064549;27;98876;-75
2024/01/31 04:26:10;;;;;;;3.88;1.60;;;;;;;;;;5065250;27;99743;-75
2024/01/31 04:28:36;;;;;;;3.85;2.13;;;;;;;;;;5063753;27;100021;-75
2024/01/31 04:31:03;;;;;;;1.88;1.67;;;;;;;;;;5064985;27;98387;-75
2024/01/31 04:33:29;;;;;;;3.10;1.90;;;;;;;;;;5065231;27;101919;-75
2024/01/31 04:35:56;;;;;;;5.97;2.08;;;;;;;;;;5068595;27;99850;-76
2024/01/31 04:38:22;;;;;;;8.90;2.05;;;;;;;;;;5063311;27;99569;-75
2024/01/31 04:40:49;;;;;;;3.90;2.03;;;;;;;;;;5064845;27;99337;-77
2024/01/31 04:43:17;;;;;;;7.28;2.03;;;;;;;;;;5063577;27;98308;-74
2024/01/31 04:45:44;;;;;;;2.25;1.80;;;;;;;;;;5063619;27;99370;-75
2024/01/31 04:48:10;;;;;;;2.08;1.90;;;;;;;;;;5065222;27;100015;-76
2024/01/31 04:50:37;;;;;;;3.20;1.90;;;;;;;;;;5064903;27;98811;-77
2024/01/31 04:53:04;;;;;;;6.15;2.45;;;;;;;;;;5064696;27;98673;-75
2024/01/31 04:55:31;;;;;;;4.25;2.40;;;;;;;;;;5065539;27;99862;-75
2024/01/31 04:57:57;;;;;;;9.27;2.42;;;;;;;;;;5068098;27;98279;-76
2024/01/31 05:00:24;;;;;;;10.00;2.10;;;;;;;;;;5066397;27;100089;-76
2024/01/31 05:02:51;;;;;;;3.03;2.13;;;;;;;;;;5068101;27;98597;-76
2024/01/31 05:05:19;;;;;;;2.17;1.73;;;;;;;;;;5067452;27;99701;-76
2024/01/31 05:07:46;;;;;;;4.28;2.20;;;;;;;;;;5068732;27;101164;-76
2024/01/31 05:10:12;;;;;;;4.75;2.05;;;;;;;;;;5068317;27;98167;-76
2024/01/31 05:12:39;;;;;;;2.97;2.13;;;;;;;;;;5066610;27;99072;-76
2024/01/31 05:15:05;;;;;;;4.97;2.10;;;;;;;;;;5067178;27;99074;-76
2024/01/31 05:17:32;;;;;;;6.10;2.03;;;;;;;;;;5072939;27;100635;-76
2024/01/31 05:19:58;;;;;;;4.30;2.60;;;;;;;;;;5091324;27;99488;-76
2024/01/31 05:22:26;;;;;;;5.60;2.15;;;;;;;;;;5087758;27;98233;-76
2024/01/31 05:24:52;;;;;;;4.55;2.45;;;;;;;;;;5077926;27;99497;-76
2024/01/31 05:27:19;;;;;;;8.20;2.80;;;;;;;;;;5065883;27;99000;-76
2024/01/31 05:29:45;;;;;;;2.63;2.40;;;;;;;;;;5067438;27;98245;-76
2024/01/31 05:32:12;;;;;;;7.90;2.55;;;;;;;;;;5066131;27;98953;-76
2024/01/31 05:34:42;;;;;;;2.55;2.22;;;;;;;;;;5066112;27;99250;-76
2024/01/31 05:37:09;;;;;;;5.65;2.42;;;;;;;;;;5068038;27;98236;-76
2024/01/31 05:39:35;;;;;;;4.55;2.45;;;;;;;;;;5066993;27;98842;-76
2024/01/31 05:42:02;;;;;;;3.67;2.70;;;;;;;;;;5070758;27;100096;-76
2024/01/31 05:44:28;;;;;;;2.63;2.28;;;;;;;;;;5067873;27;99660;-76
2024/01/31 05:46:55;;;;;;;2.38;2.00;;;;;;;;;;5067333;27;99999;-75
2024/01/31 05:49:21;;;;;;;8.38;2.17;;;;;;;;;;5066574;27;98230;-76
2024/01/31 05:51:49;;;;;;;4.97;2.00;;;;;;;;;;5066513;27;98423;-76
2024/01/31 05:54:16;;;;;;;3.05;2.25;;;;;;;;;;5065988;27;100147;-76
2024/01/31 05:56:42;;;;;;;2.25;2.03;;;;;;;;;;5067452;27;98985;-76
2024/01/31 05:59:09;;;;;;;3.17;2.33;;;;;;;;;;5067036;27;98675;-76
2024/01/31 06:01:36;;;;;;;11.52;2.85;;;;;;;;;;5070187;27;99940;-76
2024/01/31 06:04:03;;;;;;;3.63;2.17;;;;;;;;;;5066690;27;99775;-76
2024/01/31 06:06:30;;;;;;;2.47;2.28;;;;;;;;;;5066777;27;100222;-76
2024/01/31 06:08:57;;;;;;;2.20;2.00;;;;;;;;;;5066815;27;98242;-77
2024/01/31 06:11:23;;;;;;;3.47;2.63;;;;;;;;;;5066745;27;99424;-77
2024/01/31 06:13:50;;;;;;;2.25;2.08;;;;;;;;;;5066155;27;99965;-76
2024/01/31 06:16:16;;;;;;;2.95;2.47;;;;;;;;;;5066113;27;99182;-76
2024/01/31 06:18:43;;;;;;;2.47;2.35;;;;;;;;;;5066491;27;99144;-76
2024/01/31 06:21:09;;;;;;;2.80;2.28;;;;;;;;;;5065433;27;100059;-76
2024/01/31 06:23:36;;;;;;;5.38;2.30;;;;;;;;;;5069245;27;98455;-76
2024/01/31 06:26:03;;;;;;;5.57;2.45;;;;;;;;;;5066522;27;98600;-77
2024/01/31 06:28:30;;;;;;;3.80;2.15;;;;;;;;;;5067434;27;98474;-76
2024/01/31 06:31:03;;;;;;;3.60;2.58;;;;;;;;;;5066466;27;99462;-77
2024/01/31 06:33:31;;;;;;;3.47;2.45;;;;;;;;;;5067540;27;99917;-77
2024/01/31 06:35:58;;;;;;;3.60;2.50;;;;;;;;;;5064876;27;98801;-76
2024/01/31 06:38:24;;;;;;;7.35;2.65;;;;;;;;;;5066362;27;98618;-77
2024/01/31 06:40:51;;;;;;;3.20;2.53;;;;;;;;;;5066552;27;99744;-76
2024/01/31 06:43:18;;;;;;;4.03;2.55;;;;;;;;;;5065694;27;98331;-76
2024/01/31 06:45:47;;;;;;;3.10;2.80;;;;;;;;;;5065862;27;100252;-76
2024/01/31 06:48:14;;;;;;;3.15;2.85;;;;;;;;;;5065844;27;98294;-75
2024/01/31 06:50:40;;;;;;;12.88;3.20;;;;;;;;;;5065086;27;99606;-76
2024/01/31 06:53:08;;;;;;;4.15;2.63;;;;;;;;;;5065021;27;99297;-76
2024/01/31 06:55:34;;;;;;;3.15;2.70;;;;;;;;;;5056568;27;98298;-76
2024/01/31 06:58:01;;;;;;;4.53;3.33;;;;;;;;;;5046091;27;99403;-76
2024/01/31 07:00:28;;;;;;;3.35;3.15;;;;;;;;;;5046281;27;100125;-75
2024/01/31 07:02:55;;;;;;;6.18;3.50;;;;;;;;;;5061667;27;98482;-76
2024/01/31 07:05:21;;;;;;;4.55;3.20;;;;;;;;;;5065916;27;99344;-76
2024/01/31 07:07:48;;;;;;;9.77;3.83;;;;;;;;;;5064915;27;100340;-75
2024/01/31 07:10:15;;;;;;;4.68;3.88;;;;;;;;;;5061420;27;100962;-76
2024/01/31 07:12:41;;;;;;;4.72;4.38;;;;;;;;;;5062185;27;100038;-76
2024/01/31 07:15:08;;;;;;;4.85;4.40;;;;;;;;;;5065218;27;98368;-76
2024/01/31 07:17:34;;;;;;;7.10;4.20;;;;;;;;;;5066361;27;99611;-76
2024/01/31 07:20:01;;;;;;;6.22;5.28;;;;;;;;;;5065160;27;99324;-76
2024/01/31 07:22:27;;;;;;;8.70;4.80;;;;;;;;;;5065901;27;98643;-76
2024/01/31 07:24:54;;;;;;;5.80;5.28;;;;;;;;;;5065470;27;99865;-76
2024/01/31 07:27:20;;;;;;;8.10;6.05;;;;;;;;;;5065376;27;98960;-77
2024/01/31 07:29:47;;;;;;;6.63;5.82;;;;;;;;;;5066898;27;98607;-74
2024/01/31 07:32:13;;;;;;;5.47;4.93;;;;;;;;;;5064698;27;99110;-75
2024/01/31 07:34:40;;;;;;;7.43;6.05;;;;;;;;;;5066002;27;99051;-77
2024/01/31 07:37:06;;;;;;;9.05;6.13;;;;;;;;;;5065713;27;99114;-77
2024/01/31 07:39:32;;;;;;;7.10;6.38;;;;;;;;;;5065233;27;99898;-76
2024/01/31 07:41:59;;;;;;;6.50;5.82;;;;;;;;;;5065523;27;98265;-76
2024/01/31 07:44:25;;;;;;;14.40;6.22;;;;;;;;;;5066844;27;98652;-76
2024/01/31 07:46:54;;;;;;;8.25;6.05;;;;;;;;;;5048480;27;99139;-76
2024/01/31 07:49:21;;;;;;;10.07;6.80;;;;;;;;;;5046149;27;98499;-76
2024/01/31 07:51:52;;;;;;;10.40;6.80;;;;;;;;;;5048303;27;98982;-76
2024/01/31 07:54:19;;;;;;;9.90;7.13;;;;;;;;;;5051426;27;98515;-76
2024/01/31 07:56:45;;;;;;;9.68;7.18;;;;;;;;;;5065907;27;99893;-76
2024/01/31 07:59:12;;;;;;;8.52;6.93;;;;;;;;;;5065383;27;100043;-76
2024/01/31 08:01:38;;;;;;;7.53;6.72;;;;;;;;;;5065271;27;98218;-76
2024/01/31 08:04:06;;;;;;;14.85;8.20;;;;;;;;;;5066530;27;99418;-74
2024/01/31 08:06:35;;;;;;;8.13;6.43;;;;;;;;;;5064904;27;98824;-73
2024/01/31 08:09:03;;;;;;;7.80;7.10;;;;;;;;;;5065056;27;98356;-72
2024/01/31 08:11:42;;;;;;;7.82;6.60;;;;;;;;;;5068741;27;99307;-73
2024/01/31 08:14:09;;;;;;;31.35;14.13;;;;;;;;;;5064835;27;98486;-77
2024/01/31 08:16:36;;;;;;;12.02;8.90;;;;;;;;;;5065803;27;99425;-76
2024/01/31 08:19:02;;;;;;;7.38;6.20;;;;;;;;;;5064315;27;100020;-76
2024/01/31 08:21:30;;;;;;;6.70;6.15;;;;;;;;;;5064832;27;98218;-76
2024/01/31 08:23:56;;;;;;;8.30;6.55;;;;;;;;;;5064638;27;98587;-76
2024/01/31 08:26:23;;;;;;;8.45;5.85;;;;;;;;;;5064727;27;98973;-76
2024/01/31 08:28:49;;;;;;;7.05;5.95;;;;;;;;;;5064516;27;98382;-76
2024/01/31 08:31:32;;;;;;;7.45;6.20;;;;;;;;;;5065703;27;100183;-76
2024/01/31 08:33:58;;;;;;;5.78;5.25;;;;;;;;;;5069965;27;99523;-76
2024/01/31 08:36:25;;;;;;;6.22;5.60;;;;;;;;;;5067684;27;98681;-76
2024/01/31 08:38:51;;;;;;;7.18;5.70;;;;;;;;;;5068188;27;98955;-76
2024/01/31 08:41:19;;;;;;;6.00;5.40;;;;;;;;;;5067596;27;98375;-76
2024/01/31 08:43:46;;;;;;;6.57;5.57;;;;;;;;;;5067662;27;98526;-76
2024/01/31 08:46:13;;;;;;;6.75;5.22;;;;;;;;;;5068384;27;100008;-76
2024/01/31 08:48:40;;;;;;;5.63;5.05;;;;;;;;;;5069001;27;98384;-76
2024/01/31 08:51:07;;;;;;;5.20;4.80;;;;;;;;;;5067308;27;98759;-76
2024/01/31 08:53:34;;;;;;;6.55;4.20;;;;;;;;;;5067776;27;99040;-75
2024/01/31 08:56:00;;;;;;;7.70;4.75;;;;;;;;;;5070802;27;98286;-75
2024/01/31 08:58:35;;;;;;;14.32;5.00;;;;;;;;;;5067802;27;100138;-76
2024/01/31 09:01:01;;;;;;;8.23;6.38;;;;;;;;;;5068725;27;98705;-76
2024/01/31 09:03:28;;;;;;;4.28;3.97;;;;;;;;;;5067965;27;99493;-76
2024/01/31 09:05:54;;;;;;;10.13;5.03;;;;;;;;;;5068606;27;99945;-76
2024/01/31 09:08:21;;;;;;;5.30;4.38;;;;;;;;;;5067954;27;98380;-76
2024/01/31 09:10:48;;;;;;;4.35;4.05;;;;;;;;;;5068003;27;99380;-76
2024/01/31 09:13:14;;;;;;;6.07;4.45;;;;;;;;;;5083460;27;99952;-76
2024/01/31 09:15:41;;;;;;;4.50;4.10;;;;;;;;;;5091103;27;98595;-75
2024/01/31 09:18:08;;;;;;;4.35;3.90;;;;;;;;;;5089795;27;98426;-76
2024/01/31 09:20:35;;;;;;;4.90;4.50;;;;;;;;;;5088204;27;98822;-77
2024/01/31 09:23:01;;;;;;;6.72;4.63;;;;;;;;;;5084876;27;99313;-76
2024/01/31 09:25:28;;;;;;;5.50;4.63;;;;;;;;;;5066794;27;98948;-76
2024/01/31 09:27:54;;;;;;;8.55;4.80;;;;;;;;;;5068132;27;98233;-76
2024/01/31 09:30:21;;;;;;;4.85;4.50;;;;;;;;;;5068598;27;99788;-76
2024/01/31 09:32:47;;;;;;;5.50;4.95;;;;;;;;;;5066722;27;99985;-76
2024/01/31 09:35:14;;;;;;;4.78;3.90;;;;;;;;;;5067896;27;98254;-76
2024/01/31 09:37:40;;;;;;;4.63;4.28;;;;;;;;;;5067039;27;98707;-76
2024/01/31 09:40:08;;;;;;;6.93;4.68;;;;;;;;;;5070265;27;100211;-76
2024/01/31 09:42:37;;;;;;;5.53;4.95;;;;;;;;;;5068000;27;99773;-76
2024/01/31 09:45:03;;;;;;;6.60;4.80;;;;;;;;;;5066649;27;100320;-76
2024/01/31 09:47:30;;;;;;;7.13;5.10;;;;;;;;;;5067140;27;98209;-76
2024/01/31 09:49:57;;;;;;;5.35;4.85;;;;;;;;;;5067269;27;98669;-76
2024/01/31 09:52:27;;;;;;;8.55;5.50;;;;;;;;;;5067652;27;100014;-76
2024/01/31 09:54:57;;;;;;;6.25;5.65;;;;;;;;;;5066125;27;98826;-76
2024/01/31 09:57:24;;;;;;;6.15;4.88;;;;;;;;;;5067011;27;99469;-76
2024/01/31 09:59:51;;;;;;;7.60;5.95;;;;;;;;;;5067027;27;99788;-76
2024/01/31 10:02:17;;;;;;;8.43;5.65;;;;;;;;;;5069852;27;99041;-76
2024/01/31 10:04:48;;;;;;;7.82;5.10;;;;;;;;;;5066248;27;98969;-76
2024/01/31 10:07:24;;;;;;;5.43;4.93;;;;;;;;;;5066417;27;98271;-76
2024/01/31 10:09:53;;;;;;;5.50;5.00;;;;;;;;;;5067669;27;99682;-76
2024/01/31 10:12:20;;;;;;;6.40;5.72;;;;;;;;;;5066521;27;100175;-76
2024/01/31 10:14:54;;;;;;;6.13;5.35;;;;;;;;;;5066397;27;98231;-76
2024/01/31 10:17:22;;;;;;;7.40;4.47;;;;;;;;;;5065943;27;99557;-76
2024/01/31 10:19:48;;;;;;;6.82;5.15;;;;;;;;;;5066261;27;99095;-75
2024/01/31 10:22:18;;;;;;;4.90;4.45;;;;;;;;;;5068151;27;98268;-75
2024/01/31 10:24:45;;;;;;;5.10;4.57;;;;;;;;;;5066951;27;99949;-75
2024/01/31 10:27:12;;;;;;;5.85;4.72;;;;;;;;;;5067023;27;98276;-78
2024/01/31 10:29:39;;;;;;;5.63;4.43;;;;;;;;;;5064997;27;99012;-77
2024/01/31 10:32:06;;;;;;;5.20;4.13;;;;;;;;;;5064732;27;100113;-76
2024/01/31 10:34:34;;;;;;;10.48;5.63;;;;;;;;;;5067002;27;97958;-76
2024/01/31 10:37:20;;;;;;;8.05;4.45;;;;;;;;;;5066630;27;98833;-77
2024/01/31 10:39:50;;;;;;;5.72;4.63;;;;;;;;;;5066951;27;98838;-77
2024/01/31 10:42:17;;;;;;;4.57;4.20;;;;;;;;;;5065581;27;98353;-76
2024/01/31 10:44:46;;;;;;;6.82;4.50;;;;;;;;;;5069681;27;100202;-76
2024/01/31 10:47:13;;;;;;;7.32;5.18;;;;;;;;;;5065961;27;98278;-77
2024/01/31 10:49:39;;;;;;;5.28;4.88;;;;;;;;;;5066205;27;99612;-76
2024/01/31 10:52:08;;;;;;;8.40;4.85;;;;;;;;;;5066623;27;100403;-76
2024/01/31 10:54:36;;;;;;;9.15;5.18;;;;;;;;;;5064390;27;99118;-76
2024/01/31 10:57:05;;;;;;;8.45;5.05;;;;;;;;;;5060778;27;99712;-75
2024/01/31 10:59:36;;;;;;;9.75;5.93;;;;;;;;;;5064351;27;100564;-77
2024/01/31 11:02:03;;;;;;;11.20;6.05;;;;;;;;;;5056937;27;100532;-75
2024/01/31 11:04:29;;;;;;;7.80;6.60;;;;;;;;;;5061738;27;99520;-75
2024/01/31 11:07:03;;;;;;;13.00;7.07;;;;;;;;;;5068188;27;100034;-76
2024/01/31 11:09:31;;;;;;;7.05;6.32;;;;;;;;;;5058711;27;99182;-76
2024/01/31 11:12:04;;;;;;;11.77;6.35;;;;;;;;;;5062872;27;100318;-76
2024/01/31 11:14:31;;;;;;;9.23;6.38;;;;;;;;;;5062215;27;98314;-76
2024/01/31 11:17:11;;;;;;;12.18;6.55;;;;;;;;;;5061298;27;99518;-76
2024/01/31 11:19:43;;;;;;;12.63;7.32;;;;;;;;;;5058818;27;99956;-75
2024/01/31 11:22:10;;;;;;;10.85;6.53;;;;;;;;;;5058367;27;99635;-75
2024/01/31 11:24:45;;;;;;;12.30;7.40;;;;;;;;;;5058917;27;99776;-75
2024/01/31 11:27:12;;;;;;;15.02;8.70;;;;;;;;;;5055678;27;99920;-76
2024/01/31 11:29:38;;;;;;;21.35;9.00;;;;;;;;;;5057510;27;98314;-76
2024/01/31 11:32:06;;;;;;;14.27;9.25;;;;;;;;;;5058209;27;100228;-76
2024/01/31 11:34:32;;;;;;;25.02;10.73;;;;;;;;;;5059519;27;99315;-75
2024/01/31 11:36:59;;;;;;;13.80;9.05;;;;;;;;;;5058406;27;99453;-76
2024/01/31 11:39:25;;;;;;;22.17;11.52;;;;;;;;;;5059262;27;99988;-76
2024/01/31 11:41:52;;;;;;;15.20;9.43;;;;;;;;;;5060902;27;100368;-76
2024/01/31 11:44:18;;;;;;;14.35;9.70;;;;;;;;;;5056974;27;100571;-75
2024/01/31 11:46:45;;;;;;;23.95;13.15;;;;;;;;;;5061372;27;98545;-77
2024/01/31 11:49:11;;;;;;;21.88;13.10;;;;;;;;;;5061987;27;99250;-76
2024/01/31 11:51:38;;;;;;;12.25;9.65;;;;;;;;;;5063642;27;99916;-76
2024/01/31 11:54:04;;;;;;;16.10;9.82;;;;;;;;;;5059873;27;100462;-77
2024/01/31 11:56:34;;;;;;;17.73;9.90;;;;;;;;;;5061283;27;99261;-77
2024/01/31 11:59:00;;;;;;;13.05;10.15;;;;;;;;;;5060105;27;100644;-77
2024/01/31 12:01:27;;;;;;;18.50;9.85;;;;;;;;;;5055193;27;99501;-77
2024/01/31 12:03:54;;;;;;;14.00;10.25;;;;;;;;;;5059511;27;99109;-77
2024/01/31 12:06:20;;;;;;;21.27;10.98;;;;;;;;;;5062602;27;100086;-76
2024/01/31 12:08:48;;;;;;;16.73;10.38;;;;;;;;;;5061986;27;98378;-76
2024/01/31 12:11:15;;;;;;;18.35;10.73;;;;;;;;;;5069312;27;99869;-77
2024/01/31 12:13:41;;;;;;;14.10;9.80;;;;;;;;;;5068056;27;98324;-76
2024/01/31 12:16:08;;;;;;;18.25;10.07;;;;;;;;;;5062890;27;100154;-76
2024/01/31 12:18:34;;;;;;;17.58;9.82;;;;;;;;;;5065143;27;100561;-76
2024/01/31 12:21:05;;;;;;;17.13;10.00;;;;;;;;;;5064670;27;99175;-77
2024/01/31 12:23:32;;;;;;;12.30;9.40;;;;;;;;;;5067102;27;99601;-77
2024/01/31 12:25:59;;;;;;;16.13;9.50;;;;;;;;;;5061072;27;99784;-77
2024/01/31 12:28:25;;;;;;;15.60;9.65;;;;;;;;;;5061379;27;99992;-76
2024/01/31 12:30:52;;;;;;;13.25;9.63;;;;;;;;;;5063944;27;100171;-76
2024/01/31 12:33:19;;;;;;;14.93;11.10;;;;;;;;;;5065277;27;99883;-75
2024/01/31 12:35:46;;;;;;;14.80;9.82;;;;;;;;;;5063114;27;99629;-76
2024/01/31 12:38:15;;;;;;;12.95;9.20;;;;;;;;;;5063832;27;100480;-77
2024/01/31 12:40:41;;;;;;;12.63;9.02;;;;;;;;;;5047147;27;99766;-75
2024/01/31 12:43:08;;;;;;;13.05;9.63;;;;;;;;;;5068997;27;99685;-74
2024/01/31 12:45:35;;;;;;;11.38;8.75;;;;;;;;;;5069853;27;99147;-77
2024/01/31 12:48:02;;;;;;;7.78;6.28;;;;;;;;;;5069583;27;98683;-76
2024/01/31 12:50:28;;;;;;;9.07;7.00;;;;;;;;;;5067603;27;99451;-75
2024/01/31 12:52:55;;;;;;;9.52;6.95;;;;;;;;;;5069960;27;101564;-75
2024/01/31 12:55:22;;;;;;;8.07;7.18;;;;;;;;;;5064646;27;99367;-74
2024/01/31 12:57:48;;;;;;;10.32;7.85;;;;;;;;;;5063138;27;100119;-75
2024/01/31 13:00:15;;;;;;;8.57;6.85;;;;;;;;;;5065766;27;98990;-74
2024/01/31 13:02:42;;;;;;;8.05;7.28;;;;;;;;;;5065707;27;99447;-74
2024/01/31 13:05:09;;;;;;;9.50;7.47;;;;;;;;;;5061773;27;100190;-74
2024/01/31 13:07:36;;;;;;;8.77;7.88;;;;;;;;;;5048235;27;98275;-75
2024/01/31 13:10:03;;;;;;;10.13;7.57;;;;;;;;;;5060660;27;99453;-75
2024/01/31 13:12:29;;;;;;;8.25;6.32;;;;;;;;;;5062052;27;100294;-74
2024/01/31 13:14:56;;;;;;;8.98;6.85;;;;;;;;;;5058173;27;98696;-75
2024/01/31 13:17:23;;;;;;;16.90;7.38;;;;;;;;;;5070273;27;99637;-75
2024/01/31 13:19:50;;;;;;;9.85;7.65;;;;;;;;;;5062740;27;98733;-75
2024/01/31 13:22:16;;;;;;;9.05;6.68;;;;;;;;;;5055084;27;100139;-75
2024/01/31 13:24:43;;;;;;;7.70;6.18;;;;;;;;;;5062718;27;99856;-74
2024/01/31 13:27:09;;;;;;;5.78;5.28;;;;;;;;;;5064471;27;100179;-75
2024/01/31 13:29:37;;;;;;;5.68;5.18;;;;;;;;;;5064880;27;99748;-75
2024/01/31 13:32:04;;;;;;;6.40;5.35;;;;;;;;;;5066603;27;100137;-74
2024/01/31 13:34:30;;;;;;;5.90;5.30;;;;;;;;;;5063322;27;98954;-74
2024/01/31 13:37:00;;;;;;;6.40;5.85;;;;;;;;;;5067220;27;98065;-75
2024/01/31 13:39:27;;;;;;;12.48;5.68;;;;;;;;;;5066298;27;99183;-75
2024/01/31 13:41:55;;;;;;;7.13;5.78;;;;;;;;;;5061917;27;98600;-75
2024/01/31 13:44:22;;;;;;;6.65;5.90;;;;;;;;;;5063209;27;100215;-74
2024/01/31 13:46:49;;;;;;;6.32;5.35;;;;;;;;;;5058406;27;99607;-75
2024/01/31 13:49:18;;;;;;;6.40;5.50;;;;;;;;;;5064594;27;101242;-75
2024/01/31 13:51:45;;;;;;;5.93;5.43;;;;;;;;;;5059680;27;100101;-75
2024/01/31 13:54:11;;;;;;;9.02;4.88;;;;;;;;;;5062160;27;98357;-75
2024/01/31 13:56:38;;;;;;;11.30;5.78;;;;;;;;;;5062672;27;99505;-74
2024/01/31 13:59:04;;;;;;;6.55;4.75;;;;;;;;;;5056401;27;100691;-75
2024/01/31 14:01:31;;;;;;;8.23;5.15;;;;;;;;;;5063101;27;99141;-75
2024/01/31 14:03:57;;;;;;;7.50;4.78;;;;;;;;;;5056488;27;100130;-74
2024/01/31 14:06:24;;;;;;;8.80;5.68;;;;;;;;;;5060292;27;99862;-75
2024/01/31 14:08:50;;;;;;;4.38;3.72;;;;;;;;;;5060777;27;99941;-75
2024/01/31 14:11:19;;;;;;;5.88;3.65;;;;;;;;;;5059498;27;99866;-75
2024/01/31 14:13:46;;;;;;;5.85;3.80;;;;;;;;;;5058780;27;99315;-75
2024/01/31 14:16:14;;;;;;;5.63;3.53;;;;;;;;;;5062116;27;99121;-75
2024/01/31 14:18:41;;;;;;;5.68;4.10;;;;;;;;;;5059867;27;100079;-76
2024/01/31 14:21:12;;;;;;;4.13;3.70;;;;;;;;;;5062484;27;98622;-74
2024/01/31 14:23:39;;;;;;;7.30;3.75;;;;;;;;;;5060070;27;101750;-75
2024/01/31 14:26:10;;;;;;;7.63;3.97;;;;;;;;;;5061807;27;99666;-75
2024/01/31 14:28:39;;;;;;;8.73;3.45;;;;;;;;;;5060557;27;99448;-75
2024/01/31 14:31:07;;;;;;;14.35;4.00;;;;;;;;;;5059998;27;99801;-75
2024/01/31 14:33:34;;;;;;;5.20;3.30;;;;;;;;;;5060171;27;99624;-74
2024/01/31 14:36:01;;;;;;;3.20;2.90;;;;;;;;;;5052523;27;101249;-75
2024/01/31 14:38:28;;;;;;;5.55;2.85;;;;;;;;;;5058656;27;99917;-76